sensor_id;sensor_type;location;lat;lon;timestamp;P1;durP1;ratioP1;P2;durP2;ratioP2
37451;SDS011;23314;51.114;6.900;2023-07-31T04:02:33;15.73;;;5.03;;
37451;SDS011;23314;51.114;6.900;2023-07-31T04:04:58;9.77;;;5.63;;
37451;SDS011;23314;51.114;6.900;2023-07-31T04:07:24;9.80;;;4.40;;
37451;SDS011;23314;51.114;6.900;2023-07-31T04:09:49;7.50;;;4.87;;
37451;SDS011;23314;51.114;6.900;2023-07-31T04:12:14;10.13;;;4.97;;
37451;SDS011;23314;51.114;6.900;2023-07-31T04:14:39;7.70;;;4.27;;
37451;SDS011;23314;51.114;6.900;2023-07-31T04:17:05;10.20;;;5.10;;
37451;SDS011;23314;51.114;6.900;2023-07-31T04:19:30;8.53;;;4.87;;
37451;SDS011;23314;51.114;6.900;2023-07-31T04:21:56;9.97;;;4.90;;
37451;SDS011;23314;51.114;6.900;2023-07-31T04:24:21;9.47;;;5.17;;
37451;SDS011;23314;51.114;6.900;2023-07-31T04:26:52;8.00;;;5.33;;
37451;SDS011;23314;51.114;6.900;2023-07-31T04:29:18;9.43;;;4.93;;
37451;SDS011;23314;51.114;6.900;2023-07-31T04:31:43;10.47;;;5.10;;
37451;SDS011;23314;51.114;6.900;2023-07-31T04:34:09;7.40;;;4.87;;
37451;SDS011;23314;51.114;6.900;2023-07-31T04:36:34;8.20;;;4.73;;
37451;SDS011;23314;51.114;6.900;2023-07-31T04:39:00;8.30;;;4.93;;
37451;SDS011;23314;51.114;6.900;2023-07-31T04:41:26;9.83;;;5.37;;
37451;SDS011;23314;51.114;6.900;2023-07-31T04:43:51;8.17;;;5.30;;
37451;SDS011;23314;51.114;6.900;2023-07-31T04:46:17;12.90;;;5.80;;
37451;SDS011;23314;51.114;6.900;2023-07-31T04:48:42;9.13;;;4.93;;
37451;SDS011;23314;51.114;6.900;2023-07-31T04:51:08;9.67;;;5.53;;
37451;SDS011;23314;51.114;6.900;2023-07-31T04:53:34;9.43;;;5.03;;
37451;SDS011;23314;51.114;6.900;2023-07-31T04:55:59;9.63;;;4.70;;
37451;SDS011;23314;51.114;6.900;2023-07-31T04:58:25;9.23;;;5.33;;
37451;SDS011;23314;51.114;6.900;2023-07-31T05:00:50;7.57;;;5.00;;
37451;SDS011;23314;51.114;6.900;2023-07-31T05:03:15;10.20;;;5.30;;
37451;SDS011;23314;51.114;6.900;2023-07-31T05:05:41;7.77;;;4.73;;
37451;SDS011;23314;51.114;6.900;2023-07-31T05:08:06;8.43;;;5.33;;
37451;SDS011;23314;51.114;6.900;2023-07-31T05:10:31;7.73;;;4.77;;
37451;SDS011;23314;51.114;6.900;2023-07-31T05:12:57;6.65;;;4.65;;
37451;SDS011;23314;51.114;6.900;2023-07-31T05:15:22;7.78;;;5.25;;
37451;SDS011;23314;51.114;6.900;2023-07-31T05:17:48;5.90;;;4.82;;
37451;SDS011;23314;51.114;6.900;2023-07-31T05:20:13;8.15;;;4.75;;
37451;SDS011;23314;51.114;6.900;2023-07-31T05:22:39;5.20;;;4.63;;
37451;SDS011;23314;51.114;6.900;2023-07-31T05:25:05;12.65;;;5.20;;
37451;SDS011;23314;51.114;6.900;2023-07-31T05:27:31;8.00;;;4.68;;
37451;SDS011;23314;51.114;6.900;2023-07-31T05:29:57;7.28;;;4.90;;
37451;SDS011;23314;51.114;6.900;2023-07-31T05:32:22;6.28;;;4.15;;
37451;SDS011;23314;51.114;6.900;2023-07-31T05:34:50;7.63;;;5.13;;
37451;SDS011;23314;51.114;6.900;2023-07-31T05:37:17;7.03;;;5.10;;
37451;SDS011;23314;51.114;6.900;2023-07-31T05:39:42;8.23;;;4.93;;
37451;SDS011;23314;51.114;6.900;2023-07-31T05:42:08;12.60;;;5.03;;
37451;SDS011;23314;51.114;6.900;2023-07-31T05:44:33;7.63;;;4.43;;
37451;SDS011;23314;51.114;6.900;2023-07-31T05:46:58;12.75;;;4.53;;
37451;SDS011;23314;51.114;6.900;2023-07-31T05:49:24;8.48;;;4.13;;
37451;SDS011;23314;51.114;6.900;2023-07-31T05:51:49;8.38;;;4.38;;
37451;SDS011;23314;51.114;6.900;2023-07-31T05:54:14;6.63;;;4.13;;
37451;SDS011;23314;51.114;6.900;2023-07-31T05:56:40;6.63;;;4.18;;
37451;SDS011;23314;51.114;6.900;2023-07-31T05:59:05;6.38;;;3.78;;
37451;SDS011;23314;51.114;6.900;2023-07-31T06:01:30;8.50;;;4.82;;
37451;SDS011;23314;51.114;6.900;2023-07-31T06:03:56;6.95;;;4.45;;
37451;SDS011;23314;51.114;6.900;2023-07-31T06:06:21;6.60;;;3.90;;
37451;SDS011;23314;51.114;6.900;2023-07-31T06:08:46;7.18;;;3.90;;
37451;SDS011;23314;51.114;6.900;2023-07-31T06:11:11;7.32;;;4.25;;
37451;SDS011;23314;51.114;6.900;2023-07-31T06:13:37;7.25;;;4.10;;
37451;SDS011;23314;51.114;6.900;2023-07-31T06:16:02;6.55;;;4.38;;
37451;SDS011;23314;51.114;6.900;2023-07-31T06:18:31;7.57;;;4.07;;
37451;SDS011;23314;51.114;6.900;2023-07-31T06:20:57;6.90;;;4.32;;
37451;SDS011;23314;51.114;6.900;2023-07-31T06:23:22;6.50;;;4.22;;
37451;SDS011;23314;51.114;6.900;2023-07-31T06:25:47;7.32;;;4.47;;
37451;SDS011;23314;51.114;6.900;2023-07-31T06:28:13;7.85;;;4.57;;
37451;SDS011;23314;51.114;6.900;2023-07-31T06:30:38;7.47;;;4.50;;
37451;SDS011;23314;51.114;6.900;2023-07-31T06:33:03;6.88;;;4.40;;
37451;SDS011;23314;51.114;6.900;2023-07-31T06:35:29;7.45;;;4.70;;
37451;SDS011;23314;51.114;6.900;2023-07-31T06:37:54;7.28;;;4.53;;
37451;SDS011;23314;51.114;6.900;2023-07-31T06:40:19;8.05;;;4.40;;
37451;SDS011;23314;51.114;6.900;2023-07-31T06:42:45;8.60;;;4.75;;
37451;SDS011;23314;51.114;6.900;2023-07-31T06:45:10;5.82;;;4.00;;
37451;SDS011;23314;51.114;6.900;2023-07-31T06:47:35;8.43;;;4.32;;
37451;SDS011;23314;51.114;6.900;2023-07-31T06:50:01;8.38;;;4.68;;
37451;SDS011;23314;51.114;6.900;2023-07-31T06:52:26;4.82;;;4.00;;
37451;SDS011;23314;51.114;6.900;2023-07-31T06:55:09;7.72;;;4.45;;
37451;SDS011;23314;51.114;6.900;2023-07-31T06:57:45;10.60;;;4.53;;
37451;SDS011;23314;51.114;6.900;2023-07-31T07:00:11;6.90;;;4.30;;
37451;SDS011;23314;51.114;6.900;2023-07-31T07:02:36;8.32;;;4.60;;
37451;SDS011;23314;51.114;6.900;2023-07-31T07:05:02;6.18;;;3.95;;
37451;SDS011;23314;51.114;6.900;2023-07-31T07:07:27;7.78;;;4.07;;
37451;SDS011;23314;51.114;6.900;2023-07-31T07:09:52;7.55;;;4.53;;
37451;SDS011;23314;51.114;6.900;2023-07-31T07:12:18;6.50;;;4.20;;
37451;SDS011;23314;51.114;6.900;2023-07-31T07:14:43;8.00;;;4.28;;
37451;SDS011;23314;51.114;6.900;2023-07-31T07:17:10;9.45;;;4.45;;
37451;SDS011;23314;51.114;6.900;2023-07-31T07:19:36;6.65;;;4.07;;
37451;SDS011;23314;51.114;6.900;2023-07-31T07:22:01;7.57;;;4.35;;
37451;SDS011;23314;51.114;6.900;2023-07-31T07:24:27;8.02;;;4.47;;
37451;SDS011;23314;51.114;6.900;2023-07-31T07:26:52;6.45;;;4.25;;
37451;SDS011;23314;51.114;6.900;2023-07-31T07:29:18;7.93;;;4.38;;
37451;SDS011;23314;51.114;6.900;2023-07-31T07:31:43;11.18;;;4.55;;
37451;SDS011;23314;51.114;6.900;2023-07-31T07:34:08;5.38;;;4.13;;
37451;SDS011;23314;51.114;6.900;2023-07-31T07:36:33;6.95;;;4.38;;
37451;SDS011;23314;51.114;6.900;2023-07-31T07:38:59;7.75;;;4.03;;
37451;SDS011;23314;51.114;6.900;2023-07-31T07:41:24;7.68;;;4.15;;
37451;SDS011;23314;51.114;6.900;2023-07-31T07:43:49;5.80;;;4.60;;
37451;SDS011;23314;51.114;6.900;2023-07-31T07:46:16;5.95;;;3.95;;
37451;SDS011;23314;51.114;6.900;2023-07-31T07:48:41;4.82;;;4.03;;
37451;SDS011;23314;51.114;6.900;2023-07-31T07:51:06;5.47;;;3.78;;
37451;SDS011;23314;51.114;6.900;2023-07-31T07:53:32;8.13;;;4.60;;
37451;SDS011;23314;51.114;6.900;2023-07-31T07:55:57;5.97;;;4.30;;
37451;SDS011;23314;51.114;6.900;2023-07-31T07:58:22;6.77;;;4.70;;
37451;SDS011;23314;51.114;6.900;2023-07-31T08:00:48;8.18;;;4.45;;
37451;SDS011;23314;51.114;6.900;2023-07-31T08:03:17;6.65;;;3.90;;
37451;SDS011;23314;51.114;6.900;2023-07-31T08:05:43;8.15;;;4.28;;
37451;SDS011;23314;51.114;6.900;2023-07-31T08:08:08;6.72;;;4.00;;
37451;SDS011;23314;51.114;6.900;2023-07-31T08:10:34;8.32;;;4.18;;
37451;SDS011;23314;51.114;6.900;2023-07-31T08:12:59;6.72;;;3.78;;
37451;SDS011;23314;51.114;6.900;2023-07-31T08:15:25;5.97;;;3.90;;
37451;SDS011;23314;51.114;6.900;2023-07-31T08:17:50;3.88;;;3.38;;
37451;SDS011;23314;51.114;6.900;2023-07-31T08:20:15;5.03;;;3.50;;
37451;SDS011;23314;51.114;6.900;2023-07-31T08:22:40;5.03;;;3.30;;
37451;SDS011;23314;51.114;6.900;2023-07-31T08:25:06;5.25;;;3.55;;
37451;SDS011;23314;51.114;6.900;2023-07-31T08:27:31;4.00;;;3.60;;
37451;SDS011;23314;51.114;6.900;2023-07-31T08:29:57;5.70;;;3.75;;
37451;SDS011;23314;51.114;6.900;2023-07-31T08:32:22;6.03;;;3.78;;
37451;SDS011;23314;51.114;6.900;2023-07-31T08:34:47;5.93;;;3.67;;
37451;SDS011;23314;51.114;6.900;2023-07-31T08:37:14;4.97;;;3.53;;
37451;SDS011;23314;51.114;6.900;2023-07-31T08:39:39;6.68;;;3.95;;
37451;SDS011;23314;51.114;6.900;2023-07-31T08:42:07;6.18;;;3.13;;
37451;SDS011;23314;51.114;6.900;2023-07-31T08:44:33;5.07;;;2.90;;
37451;SDS011;23314;51.114;6.900;2023-07-31T08:46:59;6.18;;;3.25;;
37451;SDS011;23314;51.114;6.900;2023-07-31T08:49:25;4.00;;;3.10;;
37451;SDS011;23314;51.114;6.900;2023-07-31T08:51:51;9.38;;;3.50;;
37451;SDS011;23314;51.114;6.900;2023-07-31T08:54:17;4.07;;;2.85;;
37451;SDS011;23314;51.114;6.900;2023-07-31T08:56:43;6.55;;;3.15;;
37451;SDS011;23314;51.114;6.900;2023-07-31T08:59:09;6.03;;;3.55;;
37451;SDS011;23314;51.114;6.900;2023-07-31T09:01:38;6.22;;;3.35;;
37451;SDS011;23314;51.114;6.900;2023-07-31T09:04:08;5.57;;;3.15;;
37451;SDS011;23314;51.114;6.900;2023-07-31T09:06:35;3.47;;;3.10;;
37451;SDS011;23314;51.114;6.900;2023-07-31T09:09:02;9.75;;;3.22;;
37451;SDS011;23314;51.114;6.900;2023-07-31T09:11:28;3.90;;;3.22;;
37451;SDS011;23314;51.114;6.900;2023-07-31T09:13:54;5.53;;;3.95;;
37451;SDS011;23314;51.114;6.900;2023-07-31T09:16:28;6.13;;;3.03;;
37451;SDS011;23314;51.114;6.900;2023-07-31T09:18:57;5.50;;;3.67;;
37451;SDS011;23314;51.114;6.900;2023-07-31T09:21:23;4.43;;;3.58;;
37451;SDS011;23314;51.114;6.900;2023-07-31T09:23:50;5.78;;;3.53;;
37451;SDS011;23314;51.114;6.900;2023-07-31T09:26:35;6.03;;;3.63;;
37451;SDS011;23314;51.114;6.900;2023-07-31T09:29:03;6.45;;;3.55;;
37451;SDS011;23314;51.114;6.900;2023-07-31T09:31:39;5.07;;;3.22;;
37451;SDS011;23314;51.114;6.900;2023-07-31T09:34:08;4.20;;;3.55;;
37451;SDS011;23314;51.114;6.900;2023-07-31T09:39:08;5.28;;;3.38;;
37451;SDS011;23314;51.114;6.900;2023-07-31T09:41:42;5.47;;;3.10;;
37451;SDS011;23314;51.114;6.900;2023-07-31T09:44:11;5.85;;;3.13;;
37451;SDS011;23314;51.114;6.900;2023-07-31T09:46:37;4.93;;;2.80;;
37451;SDS011;23314;51.114;6.900;2023-07-31T09:51:38;7.15;;;3.60;;
37451;SDS011;23314;51.114;6.900;2023-07-31T09:54:08;4.47;;;3.25;;
37451;SDS011;23314;51.114;6.900;2023-07-31T09:56:47;4.85;;;3.05;;
37451;SDS011;23314;51.114;6.900;2023-07-31T09:59:14;5.05;;;3.22;;
37451;SDS011;23314;51.114;6.900;2023-07-31T10:01:41;5.68;;;3.17;;
37451;SDS011;23314;51.114;6.900;2023-07-31T10:04:08;7.38;;;3.28;;
37451;SDS011;23314;51.114;6.900;2023-07-31T10:06:35;6.60;;;3.72;;
37451;SDS011;23314;51.114;6.900;2023-07-31T10:09:01;5.80;;;3.30;;
37451;SDS011;23314;51.114;6.900;2023-07-31T10:11:31;2.92;;;2.63;;
37451;SDS011;23314;51.114;6.900;2023-07-31T10:14:01;5.00;;;3.60;;
37451;SDS011;23314;51.114;6.900;2023-07-31T10:16:27;5.50;;;3.50;;
37451;SDS011;23314;51.114;6.900;2023-07-31T10:18:52;9.85;;;4.35;;
37451;SDS011;23314;51.114;6.900;2023-07-31T10:21:19;5.70;;;3.60;;
37451;SDS011;23314;51.114;6.900;2023-07-31T10:23:44;7.80;;;3.42;;
37451;SDS011;23314;51.114;6.900;2023-07-31T10:26:11;9.43;;;4.05;;
37451;SDS011;23314;51.114;6.900;2023-07-31T10:28:38;5.15;;;3.70;;
37451;SDS011;23314;51.114;6.900;2023-07-31T10:31:04;7.57;;;3.53;;
37451;SDS011;23314;51.114;6.900;2023-07-31T10:33:30;5.78;;;3.60;;
37451;SDS011;23314;51.114;6.900;2023-07-31T10:36:12;5.55;;;3.35;;
37451;SDS011;23314;51.114;6.900;2023-07-31T10:38:45;6.20;;;3.72;;
37451;SDS011;23314;51.114;6.900;2023-07-31T10:41:11;4.07;;;3.17;;
37451;SDS011;23314;51.114;6.900;2023-07-31T10:43:37;5.55;;;3.72;;
37451;SDS011;23314;51.114;6.900;2023-07-31T10:46:09;8.02;;;3.47;;
37451;SDS011;23314;51.114;6.900;2023-07-31T10:48:37;5.47;;;3.25;;
37451;SDS011;23314;51.114;6.900;2023-07-31T10:51:09;4.35;;;3.55;;
37451;SDS011;23314;51.114;6.900;2023-07-31T10:53:37;3.63;;;3.17;;
37451;SDS011;23314;51.114;6.900;2023-07-31T10:56:04;3.72;;;3.17;;
37451;SDS011;23314;51.114;6.900;2023-07-31T10:58:31;5.65;;;2.65;;
37451;SDS011;23314;51.114;6.900;2023-07-31T11:00:58;6.95;;;3.30;;
37451;SDS011;23314;51.114;6.900;2023-07-31T11:03:25;4.20;;;2.83;;
37451;SDS011;23314;51.114;6.900;2023-07-31T11:05:52;5.53;;;2.63;;
37451;SDS011;23314;51.114;6.900;2023-07-31T11:08:35;3.47;;;2.60;;
37451;SDS011;23314;51.114;6.900;2023-07-31T11:11:06;6.35;;;2.78;;
37451;SDS011;23314;51.114;6.900;2023-07-31T11:13:40;2.13;;;2.00;;
37451;SDS011;23314;51.114;6.900;2023-07-31T11:16:06;2.00;;;1.80;;
37451;SDS011;23314;51.114;6.900;2023-07-31T11:18:31;2.20;;;1.52;;
37451;SDS011;23314;51.114;6.900;2023-07-31T11:20:56;3.33;;;1.58;;
37451;SDS011;23314;51.114;6.900;2023-07-31T11:23:22;2.38;;;1.67;;
37451;SDS011;23314;51.114;6.900;2023-07-31T11:25:48;2.10;;;1.92;;
37451;SDS011;23314;51.114;6.900;2023-07-31T11:28:15;2.17;;;1.98;;
37451;SDS011;23314;51.114;6.900;2023-07-31T11:30:42;1.75;;;1.52;;
37451;SDS011;23314;51.114;6.900;2023-07-31T11:33:09;1.73;;;1.60;;
37451;SDS011;23314;51.114;6.900;2023-07-31T11:35:40;2.05;;;1.60;;
37451;SDS011;23314;51.114;6.900;2023-07-31T11:40:55;1.48;;;1.38;;
37451;SDS011;23314;51.114;6.900;2023-07-31T11:43:22;1.85;;;1.60;;
37451;SDS011;23314;51.114;6.900;2023-07-31T11:45:49;1.38;;;1.38;;
37451;SDS011;23314;51.114;6.900;2023-07-31T11:48:20;1.45;;;1.35;;
37451;SDS011;23314;51.114;6.900;2023-07-31T11:50:49;1.20;;;1.20;;
37451;SDS011;23314;51.114;6.900;2023-07-31T11:53:17;2.80;;;1.27;;
37451;SDS011;23314;51.114;6.900;2023-07-31T11:55:46;0.95;;;0.95;;
37451;SDS011;23314;51.114;6.900;2023-07-31T11:58:12;1.88;;;1.52;;
37451;SDS011;23314;51.114;6.900;2023-07-31T12:00:40;1.08;;;1.08;;
37451;SDS011;23314;51.114;6.900;2023-07-31T12:03:06;1.50;;;1.10;;
37451;SDS011;23314;51.114;6.900;2023-07-31T12:05:31;1.50;;;1.27;;
37451;SDS011;23314;51.114;6.900;2023-07-31T12:07:57;1.42;;;1.33;;
37451;SDS011;23314;51.114;6.900;2023-07-31T12:10:24;1.58;;;1.10;;
37451;SDS011;23314;51.114;6.900;2023-07-31T12:12:59;1.40;;;1.30;;
37451;SDS011;23314;51.114;6.900;2023-07-31T12:15:30;1.65;;;1.55;;
37451;SDS011;23314;51.114;6.900;2023-07-31T12:17:58;1.55;;;1.45;;
37451;SDS011;23314;51.114;6.900;2023-07-31T12:20:24;1.67;;;1.67;;
37451;SDS011;23314;51.114;6.900;2023-07-31T12:22:49;1.60;;;1.50;;
37451;SDS011;23314;51.114;6.900;2023-07-31T12:25:15;1.60;;;1.50;;
37451;SDS011;23314;51.114;6.900;2023-07-31T12:27:44;1.85;;;1.70;;
37451;SDS011;23314;51.114;6.900;2023-07-31T12:30:26;1.90;;;1.80;;
37451;SDS011;23314;51.114;6.900;2023-07-31T12:32:52;2.58;;;1.70;;
37451;SDS011;23314;51.114;6.900;2023-07-31T12:35:17;2.20;;;1.98;;
37451;SDS011;23314;51.114;6.900;2023-07-31T12:37:43;2.05;;;1.95;;
37451;SDS011;23314;51.114;6.900;2023-07-31T12:40:08;2.35;;;2.25;;
37451;SDS011;23314;51.114;6.900;2023-07-31T12:42:34;2.20;;;2.10;;
37451;SDS011;23314;51.114;6.900;2023-07-31T12:44:59;3.28;;;2.38;;
37451;SDS011;23314;51.114;6.900;2023-07-31T12:47:25;4.97;;;2.38;;
37451;SDS011;23314;51.114;6.900;2023-07-31T12:49:50;2.47;;;2.20;;
37451;SDS011;23314;51.114;6.900;2023-07-31T12:52:15;2.65;;;2.45;;
37451;SDS011;23314;51.114;6.900;2023-07-31T12:54:40;2.58;;;2.38;;
37451;SDS011;23314;51.114;6.900;2023-07-31T12:57:06;2.33;;;2.13;;
37451;SDS011;23314;51.114;6.900;2023-07-31T12:59:31;3.58;;;2.42;;
37451;SDS011;23314;51.114;6.900;2023-07-31T13:01:56;3.28;;;2.80;;
37451;SDS011;23314;51.114;6.900;2023-07-31T13:04:22;3.47;;;2.50;;
37451;SDS011;23314;51.114;6.900;2023-07-31T13:06:47;2.83;;;2.63;;
37451;SDS011;23314;51.114;6.900;2023-07-31T13:09:12;3.75;;;2.80;;
37451;SDS011;23314;51.114;6.900;2023-07-31T13:11:38;3.10;;;2.90;;
37451;SDS011;23314;51.114;6.900;2023-07-31T13:14:03;3.67;;;2.55;;
37451;SDS011;23314;51.114;6.900;2023-07-31T13:16:29;3.55;;;2.90;;
37451;SDS011;23314;51.114;6.900;2023-07-31T13:18:54;4.30;;;2.72;;
37451;SDS011;23314;51.114;6.900;2023-07-31T13:21:19;2.95;;;2.38;;
37451;SDS011;23314;51.114;6.900;2023-07-31T13:23:46;3.20;;;2.80;;
37451;SDS011;23314;51.114;6.900;2023-07-31T13:26:12;3.13;;;2.80;;
37451;SDS011;23314;51.114;6.900;2023-07-31T13:28:37;3.50;;;2.47;;
37451;SDS011;23314;51.114;6.900;2023-07-31T13:31:02;3.17;;;2.70;;
37451;SDS011;23314;51.114;6.900;2023-07-31T13:33:27;3.42;;;3.13;;
37451;SDS011;23314;51.114;6.900;2023-07-31T13:35:53;12.27;;;3.67;;
37451;SDS011;23314;51.114;6.900;2023-07-31T13:38:18;3.10;;;2.70;;
37451;SDS011;23314;51.114;6.900;2023-07-31T13:40:43;3.10;;;2.80;;
37451;SDS011;23314;51.114;6.900;2023-07-31T13:43:09;4.05;;;2.75;;
37451;SDS011;23314;51.114;6.900;2023-07-31T13:45:34;3.05;;;2.75;;
37451;SDS011;23314;51.114;6.900;2023-07-31T13:48:00;2.97;;;2.60;;
37451;SDS011;23314;51.114;6.900;2023-07-31T13:50:25;3.33;;;2.72;;
37451;SDS011;23314;51.114;6.900;2023-07-31T13:52:50;2.60;;;2.45;;
37451;SDS011;23314;51.114;6.900;2023-07-31T13:55:16;4.22;;;2.60;;
37451;SDS011;23314;51.114;6.900;2023-07-31T13:57:41;3.00;;;2.63;;
37451;SDS011;23314;51.114;6.900;2023-07-31T14:00:06;2.70;;;2.50;;
37451;SDS011;23314;51.114;6.900;2023-07-31T14:02:33;3.85;;;2.83;;
37451;SDS011;23314;51.114;6.900;2023-07-31T14:04:58;2.60;;;2.40;;
37451;SDS011;23314;51.114;6.900;2023-07-31T14:07:23;2.63;;;2.20;;
37451;SDS011;23314;51.114;6.900;2023-07-31T14:09:49;3.30;;;2.78;;
37451;SDS011;23314;51.114;6.900;2023-07-31T14:12:14;4.18;;;3.78;;
37451;SDS011;23314;51.114;6.900;2023-07-31T14:14:39;3.72;;;2.92;;
37451;SDS011;23314;51.114;6.900;2023-07-31T14:17:05;2.72;;;2.53;;
37451;SDS011;23314;51.114;6.900;2023-07-31T14:19:30;3.17;;;2.85;;
37451;SDS011;23314;51.114;6.900;2023-07-31T14:21:58;2.70;;;2.50;;
37451;SDS011;23314;51.114;6.900;2023-07-31T14:24:23;2.75;;;2.55;;
37451;SDS011;23314;51.114;6.900;2023-07-31T14:26:49;3.83;;;2.88;;
37451;SDS011;23314;51.114;6.900;2023-07-31T14:29:14;2.75;;;2.55;;
37451;SDS011;23314;51.114;6.900;2023-07-31T14:31:39;2.88;;;2.67;;
37451;SDS011;23314;51.114;6.900;2023-07-31T14:34:05;2.70;;;2.50;;
37451;SDS011;23314;51.114;6.900;2023-07-31T14:36:30;2.97;;;2.78;;
37451;SDS011;23314;51.114;6.900;2023-07-31T14:38:55;2.92;;;2.63;;
37451;SDS011;23314;51.114;6.900;2023-07-31T14:41:20;4.63;;;2.90;;
37451;SDS011;23314;51.114;6.900;2023-07-31T14:43:46;2.75;;;2.55;;
37451;SDS011;23314;51.114;6.900;2023-07-31T14:46:11;2.70;;;2.50;;
37451;SDS011;23314;51.114;6.900;2023-07-31T14:48:36;3.50;;;3.03;;
37451;SDS011;23314;51.114;6.900;2023-07-31T14:51:02;2.97;;;2.78;;
37451;SDS011;23314;51.114;6.900;2023-07-31T14:53:27;3.63;;;3.33;;
37451;SDS011;23314;51.114;6.900;2023-07-31T14:55:52;3.60;;;3.30;;
37451;SDS011;23314;51.114;6.900;2023-07-31T14:58:18;4.57;;;3.60;;
37451;SDS011;23314;51.114;6.900;2023-07-31T15:00:43;5.07;;;3.83;;
37451;SDS011;23314;51.114;6.900;2023-07-31T15:03:09;4.43;;;4.03;;
37451;SDS011;23314;51.114;6.900;2023-07-31T15:05:34;5.00;;;4.00;;
37451;SDS011;23314;51.114;6.900;2023-07-31T15:07:59;4.95;;;3.72;;
37451;SDS011;23314;51.114;6.900;2023-07-31T15:10:25;9.70;;;4.65;;
37451;SDS011;23314;51.114;6.900;2023-07-31T15:12:50;4.60;;;3.78;;
37451;SDS011;23314;51.114;6.900;2023-07-31T15:15:15;5.07;;;4.13;;
37451;SDS011;23314;51.114;6.900;2023-07-31T15:17:41;3.95;;;3.50;;
37451;SDS011;23314;51.114;6.900;2023-07-31T15:20:07;6.55;;;3.83;;
37451;SDS011;23314;51.114;6.900;2023-07-31T15:22:33;4.57;;;3.90;;
37451;SDS011;23314;51.114;6.900;2023-07-31T15:24:58;4.95;;;3.60;;
37451;SDS011;23314;51.114;6.900;2023-07-31T15:27:23;4.35;;;3.95;;
37451;SDS011;23314;51.114;6.900;2023-07-31T15:29:49;6.03;;;3.92;;
37451;SDS011;23314;51.114;6.900;2023-07-31T15:32:16;3.80;;;3.50;;
37451;SDS011;23314;51.114;6.900;2023-07-31T15:34:43;4.80;;;3.63;;
37451;SDS011;23314;51.114;6.900;2023-07-31T15:37:08;5.78;;;3.78;;
37451;SDS011;23314;51.114;6.900;2023-07-31T15:39:33;3.60;;;3.30;;
37451;SDS011;23314;51.114;6.900;2023-07-31T15:41:59;4.25;;;3.75;;
37451;SDS011;23314;51.114;6.900;2023-07-31T15:44:24;3.95;;;3.60;;
37451;SDS011;23314;51.114;6.900;2023-07-31T15:46:49;5.63;;;3.90;;
37451;SDS011;23314;51.114;6.900;2023-07-31T15:49:15;3.95;;;3.55;;
37451;SDS011;23314;51.114;6.900;2023-07-31T15:51:40;3.65;;;3.35;;
37451;SDS011;23314;51.114;6.900;2023-07-31T15:54:05;4.32;;;3.92;;
37451;SDS011;23314;51.114;6.900;2023-07-31T15:56:31;4.40;;;3.97;;
37451;SDS011;23314;51.114;6.900;2023-07-31T15:58:56;6.13;;;4.10;;
37451;SDS011;23314;51.114;6.900;2023-07-31T16:01:23;5.00;;;3.97;;
37451;SDS011;23314;51.114;6.900;2023-07-31T16:03:49;4.30;;;3.63;;
37451;SDS011;23314;51.114;6.900;2023-07-31T16:06:14;5.53;;;3.78;;
37451;SDS011;23314;51.114;6.900;2023-07-31T16:08:39;5.15;;;3.97;;
37451;SDS011;23314;51.114;6.900;2023-07-31T16:11:09;4.63;;;3.60;;
37451;SDS011;23314;51.114;6.900;2023-07-31T16:13:35;4.72;;;3.75;;
37451;SDS011;23314;51.114;6.900;2023-07-31T16:16:00;4.82;;;3.70;;
37451;SDS011;23314;51.114;6.900;2023-07-31T16:18:25;4.90;;;3.78;;
37451;SDS011;23314;51.114;6.900;2023-07-31T16:20:51;5.85;;;3.45;;
37451;SDS011;23314;51.114;6.900;2023-07-31T16:23:16;4.40;;;3.63;;
37451;SDS011;23314;51.114;6.900;2023-07-31T16:25:41;4.68;;;3.70;;
37451;SDS011;23314;51.114;6.900;2023-07-31T16:28:07;5.15;;;3.78;;
37451;SDS011;23314;51.114;6.900;2023-07-31T16:30:32;4.55;;;2.92;;
37451;SDS011;23314;51.114;6.900;2023-07-31T16:32:57;3.40;;;3.10;;
37451;SDS011;23314;51.114;6.900;2023-07-31T16:35:22;4.13;;;3.13;;
37451;SDS011;23314;51.114;6.900;2023-07-31T16:37:48;4.15;;;3.38;;
37451;SDS011;23314;51.114;6.900;2023-07-31T16:40:13;3.90;;;3.20;;
37451;SDS011;23314;51.114;6.900;2023-07-31T16:42:39;3.78;;;3.38;;
37451;SDS011;23314;51.114;6.900;2023-07-31T16:45:05;5.07;;;3.60;;
37451;SDS011;23314;51.114;6.900;2023-07-31T16:47:30;3.63;;;3.30;;
37451;SDS011;23314;51.114;6.900;2023-07-31T16:49:56;5.88;;;3.90;;
37451;SDS011;23314;51.114;6.900;2023-07-31T16:52:21;4.93;;;3.63;;
37451;SDS011;23314;51.114;6.900;2023-07-31T16:54:46;4.43;;;4.03;;
37451;SDS011;23314;51.114;6.900;2023-07-31T16:57:12;3.53;;;3.28;;
37451;SDS011;23314;51.114;6.900;2023-07-31T16:59:37;3.97;;;3.58;;
37451;SDS011;23314;51.114;6.900;2023-07-31T17:02:03;3.75;;;3.45;;
37451;SDS011;23314;51.114;6.900;2023-07-31T17:04:28;3.00;;;2.80;;
37451;SDS011;23314;51.114;6.900;2023-07-31T17:06:56;4.72;;;2.25;;
37451;SDS011;23314;51.114;6.900;2023-07-31T17:09:21;2.63;;;2.42;;
37451;SDS011;23314;51.114;6.900;2023-07-31T17:11:47;2.42;;;2.22;;
37451;SDS011;23314;51.114;6.900;2023-07-31T17:14:12;3.53;;;2.80;;
37451;SDS011;23314;51.114;6.900;2023-07-31T17:16:37;3.35;;;2.63;;
37451;SDS011;23314;51.114;6.900;2023-07-31T17:19:03;3.03;;;2.72;;
37451;SDS011;23314;51.114;6.900;2023-07-31T17:21:28;2.42;;;2.22;;
37451;SDS011;23314;51.114;6.900;2023-07-31T17:23:54;3.38;;;2.47;;
37451;SDS011;23314;51.114;6.900;2023-07-31T17:26:20;2.70;;;2.50;;
37451;SDS011;23314;51.114;6.900;2023-07-31T17:28:45;4.03;;;3.30;;
37451;SDS011;23314;51.114;6.900;2023-07-31T17:31:11;3.08;;;2.80;;
37451;SDS011;23314;51.114;6.900;2023-07-31T17:33:38;2.92;;;2.70;;
37451;SDS011;23314;51.114;6.900;2023-07-31T17:36:03;4.10;;;2.85;;
37451;SDS011;23314;51.114;6.900;2023-07-31T17:38:29;3.50;;;2.90;;
37451;SDS011;23314;51.114;6.900;2023-07-31T17:40:54;3.30;;;2.97;;
37451;SDS011;23314;51.114;6.900;2023-07-31T17:43:20;2.35;;;2.25;;
37451;SDS011;23314;51.114;6.900;2023-07-31T17:45:45;4.93;;;3.00;;
37451;SDS011;23314;51.114;6.900;2023-07-31T17:48:10;2.97;;;2.78;;
37451;SDS011;23314;51.114;6.900;2023-07-31T17:50:36;5.70;;;3.00;;
37451;SDS011;23314;51.114;6.900;2023-07-31T17:53:01;3.65;;;2.75;;
37451;SDS011;23314;51.114;6.900;2023-07-31T17:55:27;4.03;;;2.95;;
37451;SDS011;23314;51.114;6.900;2023-07-31T17:57:52;3.63;;;2.80;;
37451;SDS011;23314;51.114;6.900;2023-07-31T18:00:19;3.33;;;3.00;;
37451;SDS011;23314;51.114;6.900;2023-07-31T18:02:47;3.00;;;2.70;;
37451;SDS011;23314;51.114;6.900;2023-07-31T18:05:12;4.68;;;3.53;;
37451;SDS011;23314;51.114;6.900;2023-07-31T18:07:37;3.33;;;2.90;;
37451;SDS011;23314;51.114;6.900;2023-07-31T18:10:03;3.85;;;2.80;;
37451;SDS011;23314;51.114;6.900;2023-07-31T18:12:28;3.60;;;3.30;;
37451;SDS011;23314;51.114;6.900;2023-07-31T18:14:54;3.50;;;3.20;;
37451;SDS011;23314;51.114;6.900;2023-07-31T18:17:19;4.90;;;3.75;;
37451;SDS011;23314;51.114;6.900;2023-07-31T18:19:44;5.80;;;3.63;;
37451;SDS011;23314;51.114;6.900;2023-07-31T18:22:10;3.78;;;3.17;;
37451;SDS011;23314;51.114;6.900;2023-07-31T18:24:36;4.38;;;3.10;;
37451;SDS011;23314;51.114;6.900;2023-07-31T18:27:02;5.18;;;3.30;;
37451;SDS011;23314;51.114;6.900;2023-07-31T18:29:28;3.17;;;2.70;;
37451;SDS011;23314;51.114;6.900;2023-07-31T18:31:54;3.83;;;2.90;;
37451;SDS011;23314;51.114;6.900;2023-07-31T18:34:19;7.03;;;3.35;;
37451;SDS011;23314;51.114;6.900;2023-07-31T18:36:44;3.25;;;2.95;;
37451;SDS011;23314;51.114;6.900;2023-07-31T18:39:09;4.00;;;2.80;;
37451;SDS011;23314;51.114;6.900;2023-07-31T18:41:35;4.63;;;3.03;;
37451;SDS011;23314;51.114;6.900;2023-07-31T18:44:00;3.10;;;2.80;;
37451;SDS011;23314;51.114;6.900;2023-07-31T18:46:26;4.45;;;3.05;;
37451;SDS011;23314;51.114;6.900;2023-07-31T18:48:51;3.00;;;2.63;;
37451;SDS011;23314;51.114;6.900;2023-07-31T18:51:16;6.65;;;3.03;;